Aviation Digital Data Service (ADDS)

Output produced by METARs form (0818 UTC 20 March 2019)
found at http://www.aviationweather.gov/metar/data/
 
METAR text: HUEN 200800Z 20004KT 9999 FEW023 FEW025CB 28/21 Q1016 NOSIG
Conditions at: HUEN (ENTEBBE INTL ARP, UG) observed 0800 UTC 20 March 2019
Temperature: 28.0°C (82°F)
Dewpoint: 21.0°C (70°F) [RH = 66%]
Pressure (altimeter): 30.00 inches Hg (1016.0 mb)
Winds: from the SSW (200 degrees) at 5 MPH (4 knots; 2.1 m/s)
Visibility: 6 or more miles (10+ km)
Ceiling: at least 12,000 feet AGL
Clouds: few clouds at 2300 feet AGL
few clouds at 2500 feet AGL
Weather: no significant weather observed at this time

METAR text: HUEN 200700Z 27002KT 9999 FEW020 FEW022CB 24/21 Q1016 NOSIG
Conditions at: HUEN (ENTEBBE INTL ARP, UG) observed 0700 UTC 20 March 2019
Temperature: 24.0°C (75°F)
Dewpoint: 21.0°C (70°F) [RH = 83%]
Pressure (altimeter): 30.00 inches Hg (1016.0 mb)
Winds: from the W (270 degrees) at 2 MPH (2 knots; 1.0 m/s)
Visibility: 6 or more miles (10+ km)
Ceiling: at least 12,000 feet AGL
Clouds: few clouds at 2000 feet AGL
few clouds at 2200 feet AGL
Weather: no significant weather observed at this time

METAR text: HUEN 200530Z 27002KT 9999 SCT018 FEW020CB BKN120 23/20 Q1015
Conditions at: HUEN (ENTEBBE INTL ARP, UG) observed 0530 UTC 20 March 2019
Temperature: 23.0°C (73°F)
Dewpoint: 20.0°C (68°F) [RH = 83%]
Pressure (altimeter): 29.97 inches Hg (1015.0 mb)
Winds: from the W (270 degrees) at 2 MPH (2 knots; 1.0 m/s)
Visibility: 6 or more miles (10+ km)
Ceiling: 12000 feet AGL
Clouds: scattered clouds at 1800 feet AGL
few clouds at 2000 feet AGL
broken clouds at 12000 feet AGL
Weather: no significant weather observed at this time

METAR text: HUEN 200500Z 27002KT 9999 SCT018 FEW020CB BKN120 23/20 Q1015
Conditions at: HUEN (ENTEBBE INTL ARP, UG) observed 0500 UTC 20 March 2019
Temperature: 23.0°C (73°F)
Dewpoint: 20.0°C (68°F) [RH = 83%]
Pressure (altimeter): 29.97 inches Hg (1015.0 mb)
Winds: from the W (270 degrees) at 2 MPH (2 knots; 1.0 m/s)
Visibility: 6 or more miles (10+ km)
Ceiling: 12000 feet AGL
Clouds: scattered clouds at 1800 feet AGL
few clouds at 2000 feet AGL
broken clouds at 12000 feet AGL
Weather: no significant weather observed at this time

METAR text: HUEN 200430Z 27002KT 9999 SCT018 FEW020CB BKN120 23/21 Q1015
Conditions at: HUEN (ENTEBBE INTL ARP, UG) observed 0430 UTC 20 March 2019
Temperature: 23.0°C (73°F)
Dewpoint: 21.0°C (70°F) [RH = 89%]
Pressure (altimeter): 29.97 inches Hg (1015.0 mb)
Winds: from the W (270 degrees) at 2 MPH (2 knots; 1.0 m/s)
Visibility: 6 or more miles (10+ km)
Ceiling: 12000 feet AGL
Clouds: scattered clouds at 1800 feet AGL
few clouds at 2000 feet AGL
broken clouds at 12000 feet AGL
Weather: no significant weather observed at this time

METAR text: HUEN 200400Z 27003KT 9999 SCT018SC 4OKTAS FEW020CB BKN120 23/21 Q1014
Conditions at: HUEN (ENTEBBE INTL ARP, UG) observed 0400 UTC 20 March 2019
Temperature: 23.0°C (73°F)
Dewpoint: 21.0°C (70°F) [RH = 89%]
Pressure (altimeter): 29.94 inches Hg (1014.0 mb)
Winds: from the W (270 degrees) at 3 MPH (3 knots; 1.5 m/s)
Visibility: 6 or more miles (10+ km)
Ceiling: 12000 feet AGL
Clouds: few clouds at 2000 feet AGL
broken clouds at 12000 feet AGL
Weather: no significant weather observed at this time

METAR text: HUEN 200330Z 00000KT 9999 SCT018 FEW020CB BKN120 22/21 Q1014
Conditions at: HUEN (ENTEBBE INTL ARP, UG) observed 0330 UTC 20 March 2019
Temperature: 22.0°C (72°F)
Dewpoint: 21.0°C (70°F) [RH = 94%]
Pressure (altimeter): 29.94 inches Hg (1014.0 mb)
Winds: calm
Visibility: 6 or more miles (10+ km)
Ceiling: 12000 feet AGL
Clouds: scattered clouds at 1800 feet AGL
few clouds at 2000 feet AGL
broken clouds at 12000 feet AGL
Weather: no significant weather observed at this time

METAR text: HUEN 200300Z 36002KT 9999 SCT019 FEW021CB BKN120 22/21 Q1014
Conditions at: HUEN (ENTEBBE INTL ARP, UG) observed 0300 UTC 20 March 2019
Temperature: 22.0°C (72°F)
Dewpoint: 21.0°C (70°F) [RH = 94%]
Pressure (altimeter): 29.94 inches Hg (1014.0 mb)
Winds: from the N (360 degrees) at 2 MPH (2 knots; 1.0 m/s)
Visibility: 6 or more miles (10+ km)
Ceiling: 12000 feet AGL
Clouds: scattered clouds at 1900 feet AGL
few clouds at 2100 feet AGL
broken clouds at 12000 feet AGL
Weather: no significant weather observed at this time

METAR text: HUEN 200230Z 00000KT 9999 SCT019 FEW021CB BKN120 22/21 Q1013
Conditions at: HUEN (ENTEBBE INTL ARP, UG) observed 0230 UTC 20 March 2019
Temperature: 22.0°C (72°F)
Dewpoint: 21.0°C (70°F) [RH = 94%]
Pressure (altimeter): 29.91 inches Hg (1013.0 mb)
Winds: calm
Visibility: 6 or more miles (10+ km)
Ceiling: 12000 feet AGL
Clouds: scattered clouds at 1900 feet AGL
few clouds at 2100 feet AGL
broken clouds at 12000 feet AGL
Weather: no significant weather observed at this time

METAR text: HUEN 200200Z 00000KT 9999 FEW019 FEW021CB BKN120 22/21 Q1013
Conditions at: HUEN (ENTEBBE INTL ARP, UG) observed 0200 UTC 20 March 2019
Temperature: 22.0°C (72°F)
Dewpoint: 21.0°C (70°F) [RH = 94%]
Pressure (altimeter): 29.91 inches Hg (1013.0 mb)
Winds: calm
Visibility: 6 or more miles (10+ km)
Ceiling: 12000 feet AGL
Clouds: few clouds at 1900 feet AGL
few clouds at 2100 feet AGL
broken clouds at 12000 feet AGL
Weather: no significant weather observed at this time

METAR text: HUEN 200130Z 07002KT 9999 FEW020 FEW022CB 22/21 Q1013
Conditions at: HUEN (ENTEBBE INTL ARP, UG) observed 0130 UTC 20 March 2019
Temperature: 22.0°C (72°F)
Dewpoint: 21.0°C (70°F) [RH = 94%]
Pressure (altimeter): 29.91 inches Hg (1013.0 mb)
Winds: from the ENE (70 degrees) at 2 MPH (2 knots; 1.0 m/s)
Visibility: 6 or more miles (10+ km)
Ceiling: at least 12,000 feet AGL
Clouds: few clouds at 2000 feet AGL
few clouds at 2200 feet AGL
Weather: no significant weather observed at this time

METAR text: HUEN 200100Z 36003KT 9999 FEW020 FEW022CB 22/21 Q1012
Conditions at: HUEN (ENTEBBE INTL ARP, UG) observed 0100 UTC 20 March 2019
Temperature: 22.0°C (72°F)
Dewpoint: 21.0°C (70°F) [RH = 94%]
Pressure (altimeter): 29.88 inches Hg (1012.0 mb)
Winds: from the N (360 degrees) at 3 MPH (3 knots; 1.5 m/s)
Visibility: 6 or more miles (10+ km)
Ceiling: at least 12,000 feet AGL
Clouds: few clouds at 2000 feet AGL
few clouds at 2200 feet AGL
Weather: no significant weather observed at this time

METAR text: HUEN 200030Z 34003KT 9999 FEW020 FEW022CB 22/21 Q1013
Conditions at: HUEN (ENTEBBE INTL ARP, UG) observed 0030 UTC 20 March 2019
Temperature: 22.0°C (72°F)
Dewpoint: 21.0°C (70°F) [RH = 94%]
Pressure (altimeter): 29.91 inches Hg (1013.0 mb)
Winds: from the NNW (340 degrees) at 3 MPH (3 knots; 1.5 m/s)
Visibility: 6 or more miles (10+ km)
Ceiling: at least 12,000 feet AGL
Clouds: few clouds at 2000 feet AGL
few clouds at 2200 feet AGL
Weather: no significant weather observed at this time

METAR text: HUEN 200000Z 32006KT 9999 FEW020 FEW022CB 23/22 Q1013
Conditions at: HUEN (ENTEBBE INTL ARP, UG) observed 0000 UTC 20 March 2019
Temperature: 23.0°C (73°F)
Dewpoint: 22.0°C (72°F) [RH = 94%]
Pressure (altimeter): 29.91 inches Hg (1013.0 mb)
Winds: from the NW (320 degrees) at 7 MPH (6 knots; 3.1 m/s)
Visibility: 6 or more miles (10+ km)
Ceiling: at least 12,000 feet AGL
Clouds: few clouds at 2000 feet AGL
few clouds at 2200 feet AGL
Weather: no significant weather observed at this time

METAR text: HUEN 192330Z 31006KT 9999 FEW020 FEW022CB BKN110 23/22 Q1013
Conditions at: HUEN (ENTEBBE INTL ARP, UG) observed 2330 UTC 19 March 2019
Temperature: 23.0°C (73°F)
Dewpoint: 22.0°C (72°F) [RH = 94%]
Pressure (altimeter): 29.91 inches Hg (1013.0 mb)
Winds: from the NW (310 degrees) at 7 MPH (6 knots; 3.1 m/s)
Visibility: 6 or more miles (10+ km)
Ceiling: 11000 feet AGL
Clouds: few clouds at 2000 feet AGL
few clouds at 2200 feet AGL
broken clouds at 11000 feet AGL
Weather: no significant weather observed at this time

METAR text: HUEN 192300Z 00000KT 9999 FEW021 FEW023CB BKN110 23/22 Q1013
Conditions at: HUEN (ENTEBBE INTL ARP, UG) observed 2300 UTC 19 March 2019
Temperature: 23.0°C (73°F)
Dewpoint: 22.0°C (72°F) [RH = 94%]
Pressure (altimeter): 29.91 inches Hg (1013.0 mb)
Winds: calm
Visibility: 6 or more miles (10+ km)
Ceiling: 11000 feet AGL
Clouds: few clouds at 2100 feet AGL
few clouds at 2300 feet AGL
broken clouds at 11000 feet AGL
Weather: no significant weather observed at this time

METAR text: HUEN 192230Z 00000KT 9999 FEW021 FEW023CB BKN110 23/22 Q1013
Conditions at: HUEN (ENTEBBE INTL ARP, UG) observed 2230 UTC 19 March 2019
Temperature: 23.0°C (73°F)
Dewpoint: 22.0°C (72°F) [RH = 94%]
Pressure (altimeter): 29.91 inches Hg (1013.0 mb)
Winds: calm
Visibility: 6 or more miles (10+ km)
Ceiling: 11000 feet AGL
Clouds: few clouds at 2100 feet AGL
few clouds at 2300 feet AGL
broken clouds at 11000 feet AGL
Weather: no significant weather observed at this time

METAR text: HUEN 192200Z 29002KT 9999 FEW022 FEW024CB 24/22 Q1013
Conditions at: HUEN (ENTEBBE INTL ARP, UG) observed 2200 UTC 19 March 2019
Temperature: 24.0°C (75°F)
Dewpoint: 22.0°C (72°F) [RH = 89%]
Pressure (altimeter): 29.91 inches Hg (1013.0 mb)
Winds: from the WNW (290 degrees) at 2 MPH (2 knots; 1.0 m/s)
Visibility: 6 or more miles (10+ km)
Ceiling: at least 12,000 feet AGL
Clouds: few clouds at 2200 feet AGL
few clouds at 2400 feet AGL
Weather: no significant weather observed at this time

METAR text: HUEN 192130Z 29003KT 9999 FEW022 FEW024CB 24/22 Q1013
Conditions at: HUEN (ENTEBBE INTL ARP, UG) observed 2130 UTC 19 March 2019
Temperature: 24.0°C (75°F)
Dewpoint: 22.0°C (72°F) [RH = 89%]
Pressure (altimeter): 29.91 inches Hg (1013.0 mb)
Winds: from the WNW (290 degrees) at 3 MPH (3 knots; 1.5 m/s)
Visibility: 6 or more miles (10+ km)
Ceiling: at least 12,000 feet AGL
Clouds: few clouds at 2200 feet AGL
few clouds at 2400 feet AGL
Weather: no significant weather observed at this time

METAR text: HUEN 192100Z 22003KT 9999 FEW022 FEW024CB 25/22 Q1014
Conditions at: HUEN (ENTEBBE INTL ARP, UG) observed 2100 UTC 19 March 2019
Temperature: 25.0°C (77°F)
Dewpoint: 22.0°C (72°F) [RH = 83%]
Pressure (altimeter): 29.94 inches Hg (1014.0 mb)
Winds: from the SW (220 degrees) at 3 MPH (3 knots; 1.5 m/s)
Visibility: 6 or more miles (10+ km)
Ceiling: at least 12,000 feet AGL
Clouds: few clouds at 2200 feet AGL
few clouds at 2400 feet AGL
Weather: no significant weather observed at this time

METAR text: HUEN 192030Z 18007KT 9999 FEW022 FEW024CB 25/22 Q1014
Conditions at: HUEN (ENTEBBE INTL ARP, UG) observed 2030 UTC 19 March 2019
Temperature: 25.0°C (77°F)
Dewpoint: 22.0°C (72°F) [RH = 83%]
Pressure (altimeter): 29.94 inches Hg (1014.0 mb)
Winds: from the S (180 degrees) at 8 MPH (7 knots; 3.6 m/s)
Visibility: 6 or more miles (10+ km)
Ceiling: at least 12,000 feet AGL
Clouds: few clouds at 2200 feet AGL
few clouds at 2400 feet AGL
Weather: no significant weather observed at this time

METAR text: HUEN 192000Z 18008KT 9999 FEW023 FEW025CB 25/22 Q1014
Conditions at: HUEN (ENTEBBE INTL ARP, UG) observed 2000 UTC 19 March 2019
Temperature: 25.0°C (77°F)
Dewpoint: 22.0°C (72°F) [RH = 83%]
Pressure (altimeter): 29.94 inches Hg (1014.0 mb)
Winds: from the S (180 degrees) at 9 MPH (8 knots; 4.1 m/s)
Visibility: 6 or more miles (10+ km)
Ceiling: at least 12,000 feet AGL
Clouds: few clouds at 2300 feet AGL
few clouds at 2500 feet AGL
Weather: no significant weather observed at this time

METAR text: HUEN 191930Z 16008KT 9999 FEW023 FEW025CB 25/22 Q1013
Conditions at: HUEN (ENTEBBE INTL ARP, UG) observed 1930 UTC 19 March 2019
Temperature: 25.0°C (77°F)
Dewpoint: 22.0°C (72°F) [RH = 83%]
Pressure (altimeter): 29.91 inches Hg (1013.0 mb)
Winds: from the SSE (160 degrees) at 9 MPH (8 knots; 4.1 m/s)
Visibility: 6 or more miles (10+ km)
Ceiling: at least 12,000 feet AGL
Clouds: few clouds at 2300 feet AGL
few clouds at 2500 feet AGL
Weather: no significant weather observed at this time

METAR text: HUEN 191900Z 14014KT 9999 FEW0 FEW025CB 25/21 Q1013
Conditions at: HUEN (ENTEBBE INTL ARP, UG) observed 1900 UTC 19 March 2019
Temperature: 25.0°C (77°F)
Dewpoint: 21.0°C (70°F) [RH = 79%]
Pressure (altimeter): 29.91 inches Hg (1013.0 mb)
Winds: from the SE (140 degrees) at 16 MPH (14 knots; 7.2 m/s)
Visibility: 6 or more miles (10+ km)
Ceiling: at least 12,000 feet AGL
Clouds: few clouds at 2500 feet AGL
Weather: no significant weather observed at this time

METAR text: HUEN 191830Z 16010KT 9999 FEW023 FEW025CB 25/22 Q1013
Conditions at: HUEN (ENTEBBE INTL ARP, UG) observed 1830 UTC 19 March 2019
Temperature: 25.0°C (77°F)
Dewpoint: 22.0°C (72°F) [RH = 83%]
Pressure (altimeter): 29.91 inches Hg (1013.0 mb)
Winds: from the SSE (160 degrees) at 12 MPH (10 knots; 5.1 m/s)
Visibility: 6 or more miles (10+ km)
Ceiling: at least 12,000 feet AGL
Clouds: few clouds at 2300 feet AGL
few clouds at 2500 feet AGL
Weather: no significant weather observed at this time

METAR text: HUEN 191800Z 16010KT 9999 FEW024 FEW026CB 25/22 Q1013
Conditions at: HUEN (ENTEBBE INTL ARP, UG) observed 1800 UTC 19 March 2019
Temperature: 25.0°C (77°F)
Dewpoint: 22.0°C (72°F) [RH = 83%]
Pressure (altimeter): 29.91 inches Hg (1013.0 mb)
Winds: from the SSE (160 degrees) at 12 MPH (10 knots; 5.1 m/s)
Visibility: 6 or more miles (10+ km)
Ceiling: at least 12,000 feet AGL
Clouds: few clouds at 2400 feet AGL
few clouds at 2600 feet AGL
Weather: no significant weather observed at this time

METAR text: HUEN 191730Z 16010KT 9999 FEW024 FEW026CB 25/22 Q1013
Conditions at: HUEN (ENTEBBE INTL ARP, UG) observed 1730 UTC 19 March 2019
Temperature: 25.0°C (77°F)
Dewpoint: 22.0°C (72°F) [RH = 83%]
Pressure (altimeter): 29.91 inches Hg (1013.0 mb)
Winds: from the SSE (160 degrees) at 12 MPH (10 knots; 5.1 m/s)
Visibility: 6 or more miles (10+ km)
Ceiling: at least 12,000 feet AGL
Clouds: few clouds at 2400 feet AGL
few clouds at 2600 feet AGL
Weather: no significant weather observed at this time

METAR text: HUEN 191630Z 11008KT 9999 FEW025 FEW027CB 27/21 Q1012
Conditions at: HUEN (ENTEBBE INTL ARP, UG) observed 1630 UTC 19 March 2019
Temperature: 27.0°C (81°F)
Dewpoint: 21.0°C (70°F) [RH = 70%]
Pressure (altimeter): 29.88 inches Hg (1012.0 mb)
Winds: from the ESE (110 degrees) at 9 MPH (8 knots; 4.1 m/s)
Visibility: 6 or more miles (10+ km)
Ceiling: at least 12,000 feet AGL
Clouds: few clouds at 2500 feet AGL
few clouds at 2700 feet AGL
Weather: no significant weather observed at this time

METAR text: HUEN 191500Z 16008KT 9999 FEW026 FEW028CB 29/20 Q1012
Conditions at: HUEN (ENTEBBE INTL ARP, UG) observed 1500 UTC 19 March 2019
Temperature: 29.0°C (84°F)
Dewpoint: 20.0°C (68°F) [RH = 58%]
Pressure (altimeter): 29.88 inches Hg (1012.0 mb)
Winds: from the SSE (160 degrees) at 9 MPH (8 knots; 4.1 m/s)
Visibility: 6 or more miles (10+ km)
Ceiling: at least 12,000 feet AGL
Clouds: few clouds at 2600 feet AGL
few clouds at 2800 feet AGL
Weather: no significant weather observed at this time

METAR text: HUEN 191430Z 18010KT 9999 FEW026 FEW028CB 29/21 Q1012
Conditions at: HUEN (ENTEBBE INTL ARP, UG) observed 1430 UTC 19 March 2019
Temperature: 29.0°C (84°F)
Dewpoint: 21.0°C (70°F) [RH = 62%]
Pressure (altimeter): 29.88 inches Hg (1012.0 mb)
Winds: from the S (180 degrees) at 12 MPH (10 knots; 5.1 m/s)
Visibility: 6 or more miles (10+ km)
Ceiling: at least 12,000 feet AGL
Clouds: few clouds at 2600 feet AGL
few clouds at 2800 feet AGL
Weather: no significant weather observed at this time

Forecast for: COR
Text: TAF COR HUEN 200500Z 2006/2112 18005KT CAVOK
Forecast period: 0600 to 0900 UTC 20 March 2019
Forecast type: FROM: standard forecast or significant change
Winds: from the S (180 degrees) at 6 MPH (5 knots; 2.6 m/s)
Visibility: 6 or more miles 10+ km)
Ceiling: at least 12,000 feet AGL
Clouds: few clouds at 2600 feet AGL
Weather: NSW  (no significant weather)
Text: FM200900 18008KT 9999 FEW023 FEW025CB
Forecast period: 0900 to 1800 UTC 20 March 2019
Forecast type: FROM: standard forecast or significant change
Winds: from the S (180 degrees) at 9 MPH (8 knots; 4.1 m/s)
Visibility: 6 or more miles 10+ km)
Ceiling: at least 12,000 feet AGL
Clouds: few clouds at 2300 feet AGL
few clouds at 2500 feet AGL
Weather: no significant weather forecast for this period
Text: BECMG 2018/2024 34006KT FEW021 FEW023CB
Forecast period: 1800 UTC 20 March 2019 to 0100 UTC 21 March 2019
Forecast type: BECOMING: Conditions expected to become as follows by 0000 UTC 21 March 2019
Winds: from the NNW (340 degrees) at 7 MPH (6 knots; 3.1 m/s)
Visibility: 6 or more miles 10+ km)
Ceiling: 12000 feet AGL
Clouds: few clouds at 2100 feet AGL
few clouds at 2300 feet AGL
broken clouds at 12000 feet AGL
Weather: no significant weather forecast for this period
Text: BECMG 2101/2106 19010KT FEW023 FEW025CB
Forecast period: 0100 to 1200 UTC 21 March 2019
Forecast type: BECOMING: Conditions expected to become as follows by 0600 UTC 21 March 2019
Winds: from the S (190 degrees) at 12 MPH (10 knots; 5.1 m/s)
Visibility: 6 or more miles 10+ km)
Ceiling: at least 12,000 feet AGL
Clouds: few clouds at 2300 feet AGL
few clouds at 2500 feet AGL
Weather: no significant weather forecast for this period